41.8°F
Current conditions from King Hill
Updated every 5 minutes
 
  Saturday October 25, 2014

Observations for Westford

Westford

44° 37' 39"N, 73° 02' 29"W, Elevation 850 ft.
Eastern Time

Hourly observations for the last 72 hours

Date Time Temperature (F) Humi-
dity

(%)
Wind
(mph)
Pressure Rain (in)
Air Dew 6 Hour 1 Hr 3 Hr 6 Hr Day
Alt
(in)
Sea
Level

(mb)
Max Min
23 18:00 41.8 41.0 97 N 2 G 12 29.87 1011.4 0.31
23 17:00 42.3 41.5 97 NNE 1 G 12 29.87 1011.5 0.15 0.31
23 16:00 43.0 42.2 97 N 0 G 11 29.88 1011.8 0.03 0.31
23 15:00 43.2 42.4 97 NW 0 G 1 29.86 1011.4 0.12 0.28
23 14:00 43.1 42.3 43.1 41.4 97 NE 0 G 9 29.89 1012.3 0.07 0.12 0.16 0.16
23 13:00 42.5 41.4 96 NNW 0 G 12 29.90 1012.4 0.01 0.09
23 12:00 42.8 41.7 96 NNE 2 G 14 29.90 1012.6 0.04 0.08
23 11:00 42.5 41.4 96 NNW 0 G 11 29.92 1013.2 0.04 0.04 0.04
23 10:00 42.3 40.1 92 NW 0 G 1 29.93 1013.4 0.00
23 09:00 41.8 39.1 90 N 1 G 10 29.93 1013.7 0.00
23 08:00 41.4 38.7 43.9 41.0 90 N 1 G 10 29.94 1014.1 0.00
23 07:00 41.5 38.5 89 NNE 0 G 6 29.96 1014.5 0.00
23 06:00 42.8 39.5 88 N 0 G 8 29.96 1014.6 0.00
23 05:00 43.5 39.6 86 NNW 0 G 12 29.96 1014.5 0.00
23 04:00 42.7 39.1 87 N 0 G 1 29.97 1015.1 0.00
23 03:00 42.8 38.9 86 NNW 0 G 1 29.98 1015.4 0.00
23 02:00 43.9 39.7 48.0 43.9 85 NE 0 G 1 30.01 1016.3 0.00
23 01:00 45.3 40.1 82 N 0 G 11 30.02 1016.8 0.00
23 00:00 46.3 40.1 79 NNE 3 G 14 30.03 1017.1 0.02
22 23:00 45.4 41.2 85 Calm 30.05 1017.7 0.02
22 22:00 45.5 42.4 89 Calm 30.08 1018.6 0.02
22 21:00 48.0 42.8 82 N 0 G 1 30.07 1018.5 0.02
22 20:00 47.7 43.1 52.1 47.7 84 NNE 0 G 1 30.09 1019.1 0.01 0.01 0.01 0.02
22 19:00 49.1 42.5 78 N 0 G 11 30.10 1019.4 0.01
22 18:00 49.4 44.1 82 N 0 G 12 30.11 1019.7 0.01
22 17:00 51.0 45.4 81 NNW 0 G 1 30.11 1019.6 0.01
22 16:00 49.9 45.6 85 NNE 5 G 15 30.12 1020.0 0.01
22 15:00 51.5 47.5 86 N 0 G 10 30.12 1020.1 0.01
22 14:00 49.3 47.1 49.7 44.4 92 N 1 G 9 30.13 1020.2 0.01
22 13:00 49.7 47.2 91 N 2 G 10 30.15 1021.0 0.01
22 12:00 47.3 46.2 96 N 0 G 8 30.16 1021.4 0.01
22 11:00 46.4 45.3 96 N 2 G 9 30.16 1021.3 0.01
22 10:00 46.3 45.8 98 N 1 G 8 30.16 1021.4 0.01
22 09:00 44.8 44.0 97 N 2 G 4 30.15 1021.0 0.01
22 08:00 44.4 43.6 44.9 43.0 97 N 1 G 6 30.13 1020.4 0.01 0.01 0.01
22 07:00 44.3 43.8 98 NNE 2 G 8 30.11 1019.8 0.01
22 06:00 43.0 42.5 98 NNE 0 G 2 30.10 1019.2 0.01 0.01
22 05:00 44.1 43.6 98 N 0 G 5 30.08 1018.8 0.00
22 04:00 44.5 44.0 98 E 0 G 3 30.07 1018.4 0.00
22 03:00 44.7 44.2 98 NNE 0 G 4 30.07 1018.2 0.00
22 02:00 44.8 44.3 45.8 44.7 98 ENE 0 G 2 30.06 1018.1 0.02 0.10 0.00
22 01:00 45.0 44.5 98 Calm 30.06 1018.1 0.00
22 00:00 45.2 44.7 98 Calm 30.06 1018.1 0.02 0.27
21 23:00 45.4 44.9 98 Calm 30.06 1017.9 0.08 0.08 0.25
21 22:00 45.4 44.6 97 Calm 30.05 1017.7 0.17
21 21:00 45.6 44.8 97 Calm 30.03 1017.0 0.17
21 20:00 45.8 45.0 47.3 45.8 97 NNE 0 G 3 30.01 1016.5 0.01 0.02 0.06 0.17
21 19:00 46.1 45.3 97 N 1 G 3 30.00 1016.1 0.16
21 18:00 46.2 45.1 96 NE 0 G 5 29.99 1015.5 0.01 0.16
21 17:00 46.6 45.5 96 Calm 29.98 1015.2 0.04 0.15
21 16:00 46.7 45.6 96 Calm 29.96 1014.7 0.01 0.15
21 15:00 47.1 46.0 96 Calm 29.95 1014.4 0.03 0.14
21 14:00 46.4 45.3 46.8 41.3 96 NE 0 G 2 29.95 1014.3 0.01 0.04 0.06 0.11
21 13:00 46.7 45.6 96 ESE 0 G 3 29.95 1014.4 0.03 0.10
21 12:00 45.8 44.7 96 ENE 0 G 3 29.95 1014.4 0.07
21 11:00 45.2 44.1 96 NE 0 G 4 29.95 1014.2 0.01 0.02 0.07
21 10:00 43.6 42.5 96 Calm 29.94 1014.1 0.01 0.06
21 09:00 42.4 41.3 96 E 1 G 3 29.94 1013.8 0.05
21 08:00 41.3 40.2 42.8 40.6 96 ENE 1 G 3 29.93 1013.5 0.01 0.04 0.05 0.05
21 07:00 40.8 39.7 96 Calm 29.91 1013.0 0.03 0.04
21 06:00 41.3 39.4 93 Calm 29.90 1012.7 0.01
21 05:00 42.6 40.7 93 Calm 29.90 1012.6 0.01 0.01 0.01
21 04:00 41.5 39.6 93 Calm 29.90 1012.4 0.00
21 03:00 41.1 39.5 94 Calm 29.90 1012.4 0.00
21 02:00 40.6 38.5 44.6 37.7 92 Calm 29.90 1012.5 0.00
21 01:00 39.7 36.7 89 Calm 29.90 1012.6 0.00
21 00:00 44.5 38.1 78 Calm 29.90 1012.6 0.00
20 23:00 42.4 37.9 84 SSW 0 G 5 29.90 1012.6 0.00
20 22:00 38.3 36.2 92 Calm 29.91 1012.8 0.00
20 21:00 39.2 36.2 89 Calm 29.91 1012.8 0.00
20 20:00 41.9 38.0 45.5 41.9 86 Calm 29.91 1012.9 0.00
20 19:00 43.3 37.6 80 Calm 29.90 1012.6 0.00

Data generated by WxSolution Version 1.8.7.2, Build 2014.02.15.


 
 
Current Radar Loop:

Copyright © WestfordWeather.net 2007-2014. All rights reserved.